sensor_id;sensor_type;location;lat;lon;timestamp;pressure;altitude;pressure_sealevel;temperature;humidity
57574;BME280;68988;49.000;21.242;2023-07-31T00:01:51;98202.22;;;26.27;50.57
57574;BME280;68988;49.000;21.242;2023-07-31T00:04:17;98212.88;;;26.33;50.64
57574;BME280;68988;49.000;21.242;2023-07-31T00:06:42;98205.31;;;26.35;50.90
57574;BME280;68988;49.000;21.242;2023-07-31T00:09:08;98197.25;;;26.35;50.49
57574;BME280;68988;49.000;21.242;2023-07-31T00:11:33;98206.44;;;26.34;50.66
57574;BME280;68988;49.000;21.242;2023-07-31T00:13:58;98200.81;;;26.30;50.89
57574;BME280;68988;49.000;21.242;2023-07-31T00:16:24;98193.00;;;26.34;50.22
57574;BME280;68988;49.000;21.242;2023-07-31T00:18:49;98192.75;;;26.30;50.27
57574;BME280;68988;49.000;21.242;2023-07-31T00:21:15;98196.75;;;26.33;50.41
57574;BME280;68988;49.000;21.242;2023-07-31T00:23:40;98189.78;;;26.32;50.30
57574;BME280;68988;49.000;21.242;2023-07-31T00:26:05;98190.06;;;26.30;50.29
57574;BME280;68988;49.000;21.242;2023-07-31T00:28:31;98190.59;;;26.32;50.32
57574;BME280;68988;49.000;21.242;2023-07-31T00:30:56;98194.06;;;26.33;50.06
57574;BME280;68988;49.000;21.242;2023-07-31T00:33:21;98184.41;;;26.32;50.04
57574;BME280;68988;49.000;21.242;2023-07-31T00:35:48;98193.28;;;26.32;50.39
57574;BME280;68988;49.000;21.242;2023-07-31T00:38:14;98193.88;;;26.29;50.35
57574;BME280;68988;49.000;21.242;2023-07-31T00:40:39;98195.75;;;26.29;50.34
57574;BME280;68988;49.000;21.242;2023-07-31T00:43:05;98196.34;;;26.25;50.50
57574;BME280;68988;49.000;21.242;2023-07-31T00:45:30;98192.56;;;26.26;50.22
57574;BME280;68988;49.000;21.242;2023-07-31T00:47:56;98195.75;;;26.29;50.00
57574;BME280;68988;49.000;21.242;2023-07-31T00:50:24;98190.66;;;26.27;50.23
57574;BME280;68988;49.000;21.242;2023-07-31T00:52:50;98190.38;;;26.29;50.37
57574;BME280;68988;49.000;21.242;2023-07-31T00:55:16;98195.44;;;26.30;50.32
57574;BME280;68988;49.000;21.242;2023-07-31T00:57:42;98190.38;;;26.29;50.03
57574;BME280;68988;49.000;21.242;2023-07-31T01:00:08;98189.38;;;26.24;49.82
57574;BME280;68988;49.000;21.242;2023-07-31T01:02:34;98188.25;;;26.25;50.21
57574;BME280;68988;49.000;21.242;2023-07-31T01:05:01;98180.19;;;26.25;50.07
57574;BME280;68988;49.000;21.242;2023-07-31T01:07:34;98182.31;;;26.29;50.02
57574;BME280;68988;49.000;21.242;2023-07-31T01:10:06;98191.78;;;26.26;50.17
57574;BME280;68988;49.000;21.242;2023-07-31T01:12:34;98182.41;;;26.23;50.11
57574;BME280;68988;49.000;21.242;2023-07-31T01:15:08;98179.13;;;26.26;49.61
57574;BME280;68988;49.000;21.242;2023-07-31T01:17:37;98182.41;;;26.23;49.56
57574;BME280;68988;49.000;21.242;2023-07-31T01:20:10;98180.00;;;26.22;50.06
57574;BME280;68988;49.000;21.242;2023-07-31T01:22:54;98189.56;;;26.28;49.52
57574;BME280;68988;49.000;21.242;2023-07-31T01:29:01;98184.00;;;26.24;49.80
57574;BME280;68988;49.000;21.242;2023-07-31T01:31:22;98186.75;;;26.19;49.82
57574;BME280;68988;49.000;21.242;2023-07-31T01:33:50;98190.75;;;26.22;49.59
57574;BME280;68988;49.000;21.242;2023-07-31T01:36:16;98197.44;;;26.24;49.20
57574;BME280;68988;49.000;21.242;2023-07-31T01:38:42;98195.34;;;26.21;49.51
57574;BME280;68988;49.000;21.242;2023-07-31T01:41:07;98188.34;;;26.20;49.29
57574;BME280;68988;49.000;21.242;2023-07-31T01:43:33;98196.13;;;26.22;49.19
57574;BME280;68988;49.000;21.242;2023-07-31T01:45:58;98193.72;;;26.20;49.33
57574;BME280;68988;49.000;21.242;2023-07-31T01:48:23;98185.19;;;26.18;49.23
57574;BME280;68988;49.000;21.242;2023-07-31T01:50:49;98186.25;;;26.17;49.61
57574;BME280;68988;49.000;21.242;2023-07-31T01:53:14;98181.66;;;26.18;49.09
57574;BME280;68988;49.000;21.242;2023-07-31T01:55:40;98183.84;;;26.16;49.11
57574;BME280;68988;49.000;21.242;2023-07-31T01:58:05;98182.78;;;26.17;49.36
57574;BME280;68988;49.000;21.242;2023-07-31T02:00:31;98191.63;;;26.17;49.22
57574;BME280;68988;49.000;21.242;2023-07-31T02:02:56;98194.03;;;26.19;49.04
57574;BME280;68988;49.000;21.242;2023-07-31T02:05:21;98197.00;;;26.17;49.00
57574;BME280;68988;49.000;21.242;2023-07-31T02:07:47;98204.28;;;26.17;48.78
57574;BME280;68988;49.000;21.242;2023-07-31T02:10:12;98199.19;;;26.15;48.97
57574;BME280;68988;49.000;21.242;2023-07-31T02:12:38;98199.19;;;26.15;49.15
57574;BME280;68988;49.000;21.242;2023-07-31T02:15:03;98205.34;;;26.16;48.95
57574;BME280;68988;49.000;21.242;2023-07-31T02:17:29;98200.28;;;26.14;48.87
57574;BME280;68988;49.000;21.242;2023-07-31T02:19:54;98210.22;;;26.14;48.69
57574;BME280;68988;49.000;21.242;2023-07-31T02:22:20;98208.84;;;26.16;49.04
57574;BME280;68988;49.000;21.242;2023-07-31T02:24:45;98211.22;;;26.18;49.05
57574;BME280;68988;49.000;21.242;2023-07-31T02:27:11;98208.25;;;26.19;48.71
57574;BME280;68988;49.000;21.242;2023-07-31T02:29:36;98214.50;;;26.15;48.83
57574;BME280;68988;49.000;21.242;2023-07-31T02:32:02;98217.19;;;26.15;48.85
57574;BME280;68988;49.000;21.242;2023-07-31T02:34:27;98217.47;;;26.13;48.62
57574;BME280;68988;49.000;21.242;2023-07-31T02:36:52;98221.19;;;26.17;48.59
57574;BME280;68988;49.000;21.242;2023-07-31T02:39:18;98215.09;;;26.12;48.67
57574;BME280;68988;49.000;21.242;2023-07-31T02:41:43;98209.22;;;26.09;48.61
57574;BME280;68988;49.000;21.242;2023-07-31T02:44:08;98203.06;;;26.09;48.77
57574;BME280;68988;49.000;21.242;2023-07-31T02:46:35;98203.25;;;26.13;48.62
57574;BME280;68988;49.000;21.242;2023-07-31T02:49:00;98201.44;;;26.08;48.57
57574;BME280;68988;49.000;21.242;2023-07-31T02:51:26;98214.28;;;26.11;48.67
57574;BME280;68988;49.000;21.242;2023-07-31T02:53:51;98213.50;;;26.11;48.41
57574;BME280;68988;49.000;21.242;2023-07-31T02:56:17;98213.81;;;26.09;48.24
57574;BME280;68988;49.000;21.242;2023-07-31T02:58:42;98212.19;;;26.08;48.38
57574;BME280;68988;49.000;21.242;2023-07-31T03:01:07;98206.22;;;26.11;48.49
57574;BME280;68988;49.000;21.242;2023-07-31T03:03:32;98212.09;;;26.13;48.19
57574;BME280;68988;49.000;21.242;2023-07-31T03:05:58;98217.78;;;26.12;48.04
57574;BME280;68988;49.000;21.242;2023-07-31T03:08:23;98219.97;;;26.09;48.02
57574;BME280;68988;49.000;21.242;2023-07-31T03:10:49;98215.97;;;26.07;48.08
57574;BME280;68988;49.000;21.242;2023-07-31T03:13:14;98216.78;;;26.07;48.12
57574;BME280;68988;49.000;21.242;2023-07-31T03:15:42;98218.34;;;26.08;48.22
57574;BME280;68988;49.000;21.242;2023-07-31T03:18:08;98215.09;;;26.12;48.07
57574;BME280;68988;49.000;21.242;2023-07-31T03:20:33;98212.09;;;26.13;47.90
57574;BME280;68988;49.000;21.242;2023-07-31T03:22:58;98216.97;;;26.11;47.72
57574;BME280;68988;49.000;21.242;2023-07-31T03:25:24;98215.91;;;26.12;47.85
57574;BME280;68988;49.000;21.242;2023-07-31T03:27:49;98210.22;;;26.14;47.52
57574;BME280;68988;49.000;21.242;2023-07-31T03:30:14;98230.72;;;26.09;47.80
57574;BME280;68988;49.000;21.242;2023-07-31T03:32:40;98224.53;;;26.09;47.82
57574;BME280;68988;49.000;21.242;2023-07-31T03:35:05;98229.91;;;26.09;47.59
57574;BME280;68988;49.000;21.242;2023-07-31T03:37:31;98229.09;;;26.08;47.93
57574;BME280;68988;49.000;21.242;2023-07-31T03:39:56;98218.59;;;26.12;47.85
57574;BME280;68988;49.000;21.242;2023-07-31T03:42:22;98227.16;;;26.14;47.55
57574;BME280;68988;49.000;21.242;2023-07-31T03:44:48;98219.59;;;26.16;47.69
57574;BME280;68988;49.000;21.242;2023-07-31T03:47:13;98228.22;;;26.13;47.52
57574;BME280;68988;49.000;21.242;2023-07-31T03:49:38;98227.94;;;26.15;47.03
57574;BME280;68988;49.000;21.242;2023-07-31T03:52:04;98222.28;;;26.16;47.42
57574;BME280;68988;49.000;21.242;2023-07-31T03:54:29;98222.78;;;26.18;47.08
57574;BME280;68988;49.000;21.242;2023-07-31T03:56:55;98223.00;;;26.22;47.15
57574;BME280;68988;49.000;21.242;2023-07-31T03:59:20;98223.19;;;26.25;46.94
57574;BME280;68988;49.000;21.242;2023-07-31T04:01:45;98228.53;;;26.31;46.91
57574;BME280;68988;49.000;21.242;2023-07-31T04:04:11;98229.59;;;26.30;46.94
57574;BME280;68988;49.000;21.242;2023-07-31T04:06:36;98225.75;;;26.36;47.16
57574;BME280;68988;49.000;21.242;2023-07-31T04:09:02;98222.25;;;26.35;46.67
57574;BME280;68988;49.000;21.242;2023-07-31T04:11:28;98233.22;;;26.39;46.58
57574;BME280;68988;49.000;21.242;2023-07-31T04:13:53;98227.25;;;26.42;46.61
57574;BME280;68988;49.000;21.242;2023-07-31T04:16:19;98227.66;;;26.49;46.56
57574;BME280;68988;49.000;21.242;2023-07-31T04:18:44;98224.47;;;26.47;46.43
57574;BME280;68988;49.000;21.242;2023-07-31T04:21:09;98233.84;;;26.50;46.38
57574;BME280;68988;49.000;21.242;2023-07-31T04:23:35;98232.44;;;26.52;46.67
57574;BME280;68988;49.000;21.242;2023-07-31T04:26:01;98239.63;;;26.57;46.30
57574;BME280;68988;49.000;21.242;2023-07-31T04:28:26;98230.69;;;26.61;46.64
57574;BME280;68988;49.000;21.242;2023-07-31T04:30:52;98248.44;;;26.62;46.52
57574;BME280;68988;49.000;21.242;2023-07-31T04:33:18;98233.34;;;26.67;45.85
57574;BME280;68988;49.000;21.242;2023-07-31T04:35:51;98230.56;;;26.72;46.02
57574;BME280;68988;49.000;21.242;2023-07-31T04:38:18;98241.31;;;26.72;45.83
57574;BME280;68988;49.000;21.242;2023-07-31T04:40:44;98249.56;;;26.75;46.07
57574;BME280;68988;49.000;21.242;2023-07-31T04:43:09;98247.41;;;26.77;45.89
57574;BME280;68988;49.000;21.242;2023-07-31T04:45:36;98243.31;;;26.80;45.73
57574;BME280;68988;49.000;21.242;2023-07-31T04:48:01;98242.13;;;26.86;45.46
57574;BME280;68988;49.000;21.242;2023-07-31T04:50:26;98243.53;;;26.84;45.75
57574;BME280;68988;49.000;21.242;2023-07-31T04:52:52;98240.56;;;26.85;45.47
57574;BME280;68988;49.000;21.242;2023-07-31T04:55:17;98245.84;;;26.90;45.74
57574;BME280;68988;49.000;21.242;2023-07-31T04:57:43;98247.44;;;26.91;45.25
57574;BME280;68988;49.000;21.242;2023-07-31T05:00:08;98244.75;;;26.91;45.69
57574;BME280;68988;49.000;21.242;2023-07-31T05:02:34;98252.44;;;26.98;45.36
57574;BME280;68988;49.000;21.242;2023-07-31T05:04:59;98250.53;;;26.98;45.28
57574;BME280;68988;49.000;21.242;2023-07-31T05:07:24;98253.22;;;26.98;44.82
57574;BME280;68988;49.000;21.242;2023-07-31T05:09:50;98254.31;;;26.97;45.22
57574;BME280;68988;49.000;21.242;2023-07-31T05:12:15;98255.84;;;27.04;45.12
57574;BME280;68988;49.000;21.242;2023-07-31T05:14:40;98255.25;;;27.07;44.96
57574;BME280;68988;49.000;21.242;2023-07-31T05:17:06;98252.56;;;27.07;45.21
57574;BME280;68988;49.000;21.242;2023-07-31T05:19:31;98243.88;;;27.10;45.03
57574;BME280;68988;49.000;21.242;2023-07-31T05:21:56;98245.97;;;27.13;44.86
57574;BME280;68988;49.000;21.242;2023-07-31T05:24:22;98257.22;;;27.15;44.96
57574;BME280;68988;49.000;21.242;2023-07-31T05:26:47;98261.00;;;27.14;45.25
57574;BME280;68988;49.000;21.242;2023-07-31T05:29:12;98263.09;;;27.17;44.96
57574;BME280;68988;49.000;21.242;2023-07-31T05:31:38;98266.09;;;27.15;45.31
57574;BME280;68988;49.000;21.242;2023-07-31T05:34:04;98259.75;;;27.25;44.66
57574;BME280;68988;49.000;21.242;2023-07-31T05:36:29;98271.91;;;27.23;44.72
57574;BME280;68988;49.000;21.242;2023-07-31T05:38:54;98269.91;;;27.28;44.59
57574;BME280;68988;49.000;21.242;2023-07-31T05:41:20;98269.69;;;27.25;44.86
57574;BME280;68988;49.000;21.242;2023-07-31T05:43:45;98259.44;;;27.27;44.99
57574;BME280;68988;49.000;21.242;2023-07-31T05:46:11;98257.72;;;27.31;44.52
57574;BME280;68988;49.000;21.242;2023-07-31T05:48:37;98275.78;;;27.30;45.15
57574;BME280;68988;49.000;21.242;2023-07-31T05:51:02;98268.31;;;27.27;45.44
57574;BME280;68988;49.000;21.242;2023-07-31T05:53:28;98274.28;;;27.24;45.14
57574;BME280;68988;49.000;21.242;2023-07-31T05:55:53;98275.31;;;27.28;45.03
57574;BME280;68988;49.000;21.242;2023-07-31T05:58:18;98268.91;;;27.24;45.67
57574;BME280;68988;49.000;21.242;2023-07-31T06:00:44;98269.09;;;27.28;45.52
57574;BME280;68988;49.000;21.242;2023-07-31T06:03:10;98266.41;;;27.28;45.48
57574;BME280;68988;49.000;21.242;2023-07-31T06:05:35;98269.09;;;27.28;45.48
57574;BME280;68988;49.000;21.242;2023-07-31T06:08:01;98273.31;;;27.34;45.70
57574;BME280;68988;49.000;21.242;2023-07-31T06:10:26;98274.44;;;27.33;45.83
57574;BME280;68988;49.000;21.242;2023-07-31T06:12:52;98274.13;;;27.35;45.82
57574;BME280;68988;49.000;21.242;2023-07-31T06:15:18;98271.44;;;27.35;45.71
57574;BME280;68988;49.000;21.242;2023-07-31T06:17:44;98273.31;;;27.34;46.00
57574;BME280;68988;49.000;21.242;2023-07-31T06:20:10;98281.09;;;27.36;45.37
57574;BME280;68988;49.000;21.242;2023-07-31T06:22:35;98276.22;;;27.38;45.92
57574;BME280;68988;49.000;21.242;2023-07-31T06:25:01;98270.75;;;27.43;45.27
57574;BME280;68988;49.000;21.242;2023-07-31T06:27:26;98266.66;;;27.45;45.41
57574;BME280;68988;49.000;21.242;2023-07-31T06:29:52;98268.84;;;27.43;46.07
57574;BME280;68988;49.000;21.242;2023-07-31T06:32:17;98260.16;;;27.46;45.70
57574;BME280;68988;49.000;21.242;2023-07-31T06:34:42;98260.16;;;27.46;45.45
57574;BME280;68988;49.000;21.242;2023-07-31T06:37:08;98266.56;;;27.50;45.75
57574;BME280;68988;49.000;21.242;2023-07-31T06:39:33;98263.56;;;27.52;45.61
57574;BME280;68988;49.000;21.242;2023-07-31T06:41:58;98270.53;;;27.53;45.83
57574;BME280;68988;49.000;21.242;2023-07-31T06:44:24;98260.06;;;27.51;45.68
57574;BME280;68988;49.000;21.242;2023-07-31T06:46:50;98257.56;;;27.55;45.52
57574;BME280;68988;49.000;21.242;2023-07-31T06:49:15;98255.66;;;27.56;45.66
57574;BME280;68988;49.000;21.242;2023-07-31T06:51:41;98259.97;;;27.57;45.94
57574;BME280;68988;49.000;21.242;2023-07-31T06:54:08;98253.28;;;27.54;45.53
57574;BME280;68988;49.000;21.242;2023-07-31T06:56:33;98252.38;;;27.59;45.85
57574;BME280;68988;49.000;21.242;2023-07-31T06:58:59;98251.78;;;27.62;45.71
57574;BME280;68988;49.000;21.242;2023-07-31T07:01:24;98256.56;;;27.65;45.46
57574;BME280;68988;49.000;21.242;2023-07-31T07:03:50;98259.56;;;27.63;46.33
57574;BME280;68988;49.000;21.242;2023-07-31T07:06:19;98258.28;;;27.61;45.93
57574;BME280;68988;49.000;21.242;2023-07-31T07:08:44;98255.97;;;27.54;45.77
57574;BME280;68988;49.000;21.242;2023-07-31T07:11:10;98266.56;;;27.50;44.49
57574;BME280;68988;49.000;21.242;2023-07-31T07:13:35;98263.16;;;27.45;43.89
57574;BME280;68988;49.000;21.242;2023-07-31T07:16:01;98255.59;;;27.33;43.06
57574;BME280;68988;49.000;21.242;2023-07-31T07:18:26;98261.75;;;27.33;42.65
57574;BME280;68988;49.000;21.242;2023-07-31T07:20:53;98263.53;;;27.24;41.85
57574;BME280;68988;49.000;21.242;2023-07-31T07:23:19;98260.94;;;27.19;41.09
57574;BME280;68988;49.000;21.242;2023-07-31T07:25:45;98264.81;;;27.13;40.88
57574;BME280;68988;49.000;21.242;2023-07-31T07:28:11;98251.94;;;27.10;40.21
57574;BME280;68988;49.000;21.242;2023-07-31T07:30:36;98250.94;;;27.06;39.83
57574;BME280;68988;49.000;21.242;2023-07-31T07:33:02;98248.34;;;27.01;39.59
57574;BME280;68988;49.000;21.242;2023-07-31T07:35:28;98249.16;;;27.01;38.75
57574;BME280;68988;49.000;21.242;2023-07-31T07:37:53;98258.59;;;26.98;38.45
57574;BME280;68988;49.000;21.242;2023-07-31T07:40:19;98250.53;;;26.98;38.21
57574;BME280;68988;49.000;21.242;2023-07-31T07:42:45;98239.38;;;26.91;38.42
57574;BME280;68988;49.000;21.242;2023-07-31T07:45:10;98243.16;;;26.90;37.86
57574;BME280;68988;49.000;21.242;2023-07-31T07:47:35;98237.97;;;26.94;37.72
57574;BME280;68988;49.000;21.242;2023-07-31T07:50:01;98242.56;;;26.93;37.92
57574;BME280;68988;49.000;21.242;2023-07-31T07:52:26;98236.75;;;26.86;37.65
57574;BME280;68988;49.000;21.242;2023-07-31T07:54:51;98250.19;;;26.86;37.38
57574;BME280;68988;49.000;21.242;2023-07-31T07:57:17;98249.72;;;26.84;37.27
57574;BME280;68988;49.000;21.242;2023-07-31T07:59:42;98242.72;;;26.83;37.00
57574;BME280;68988;49.000;21.242;2023-07-31T08:02:08;98242.72;;;26.83;36.93
57574;BME280;68988;49.000;21.242;2023-07-31T08:04:33;98240.56;;;26.85;36.83
57574;BME280;68988;49.000;21.242;2023-07-31T08:06:58;98238.94;;;26.84;36.58
57574;BME280;68988;49.000;21.242;2023-07-31T08:09:24;98237.16;;;26.79;36.67
57574;BME280;68988;49.000;21.242;2023-07-31T08:11:49;98242.03;;;26.77;36.73
57574;BME280;68988;49.000;21.242;2023-07-31T08:14:14;98237.75;;;26.76;37.37
57574;BME280;68988;49.000;21.242;2023-07-31T08:16:40;98230.47;;;26.77;37.25
57574;BME280;68988;49.000;21.242;2023-07-31T08:19:05;98229.97;;;26.75;37.36
57574;BME280;68988;49.000;21.242;2023-07-31T08:21:31;98232.16;;;26.73;37.37
57574;BME280;68988;49.000;21.242;2023-07-31T08:23:56;98246.69;;;26.72;37.64
57574;BME280;68988;49.000;21.242;2023-07-31T08:26:22;98248.06;;;26.69;37.61
57574;BME280;68988;49.000;21.242;2023-07-31T08:28:47;98240.81;;;26.70;37.32
57574;BME280;68988;49.000;21.242;2023-07-31T08:31:13;98245.59;;;26.73;37.84
57574;BME280;68988;49.000;21.242;2023-07-31T08:33:39;98257.44;;;26.72;38.17
57574;BME280;68988;49.000;21.242;2023-07-31T08:36:05;98232.06;;;26.78;39.11
57574;BME280;68988;49.000;21.242;2023-07-31T08:38:30;98239.16;;;26.88;40.58
57574;BME280;68988;49.000;21.242;2023-07-31T08:40:59;98237.75;;;26.90;41.70
57574;BME280;68988;49.000;21.242;2023-07-31T08:43:26;98241.75;;;26.79;44.06
57574;BME280;68988;49.000;21.242;2023-07-31T08:45:51;98244.81;;;26.86;43.78
57574;BME280;68988;49.000;21.242;2023-07-31T08:48:17;98248.91;;;26.84;44.59
57574;BME280;68988;49.000;21.242;2023-07-31T08:50:44;98246.91;;;26.89;44.68
57574;BME280;68988;49.000;21.242;2023-07-31T08:53:10;98244.22;;;26.89;44.61
57574;BME280;68988;49.000;21.242;2023-07-31T08:55:36;98245.94;;;26.85;45.14
57574;BME280;68988;49.000;21.242;2023-07-31T08:58:03;98251.81;;;26.87;45.12
57574;BME280;68988;49.000;21.242;2023-07-31T09:00:29;98253.13;;;26.90;45.72
57574;BME280;68988;49.000;21.242;2023-07-31T09:02:59;98251.94;;;26.96;45.75
57574;BME280;68988;49.000;21.242;2023-07-31T09:05:29;98253.22;;;26.98;45.55
57574;BME280;68988;49.000;21.242;2023-07-31T09:07:55;98247.75;;;27.04;45.49
57574;BME280;68988;49.000;21.242;2023-07-31T09:10:21;98253.94;;;27.04;45.85
57574;BME280;68988;49.000;21.242;2023-07-31T09:12:47;98249.16;;;27.01;45.88
57574;BME280;68988;49.000;21.242;2023-07-31T09:15:13;98253.16;;;27.04;45.98
57574;BME280;68988;49.000;21.242;2023-07-31T09:17:39;98241.78;;;27.07;45.66
57574;BME280;68988;49.000;21.242;2023-07-31T09:20:20;98247.06;;;27.12;45.37
57574;BME280;68988;49.000;21.242;2023-07-31T09:22:48;98248.75;;;27.08;45.19
57574;BME280;68988;49.000;21.242;2023-07-31T09:25:20;98245.47;;;27.11;45.20
57574;BME280;68988;49.000;21.242;2023-07-31T09:30:25;98257.53;;;27.13;45.41
57574;BME280;68988;49.000;21.242;2023-07-31T09:32:52;98249.16;;;27.15;45.46
57574;BME280;68988;49.000;21.242;2023-07-31T09:35:28;98250.25;;;27.14;45.30
57574;BME280;68988;49.000;21.242;2023-07-31T09:37:57;98245.97;;;27.13;45.44
57574;BME280;68988;49.000;21.242;2023-07-31T09:42:52;98255.56;;;27.19;45.33
57574;BME280;68988;49.000;21.242;2023-07-31T09:45:18;98259.44;;;27.13;46.06
57574;BME280;68988;49.000;21.242;2023-07-31T09:47:47;98256.16;;;27.16;45.87
57574;BME280;68988;49.000;21.242;2023-07-31T09:50:14;98254.53;;;27.15;45.66
57574;BME280;68988;49.000;21.242;2023-07-31T09:52:40;98253.16;;;27.18;46.05
57574;BME280;68988;49.000;21.242;2023-07-31T09:55:06;98248.56;;;27.18;46.03
57574;BME280;68988;49.000;21.242;2023-07-31T09:57:31;98260.94;;;27.19;46.07
57574;BME280;68988;49.000;21.242;2023-07-31T09:59:58;98257.72;;;27.17;46.35
57574;BME280;68988;49.000;21.242;2023-07-31T10:02:24;98255.56;;;27.19;45.88
57574;BME280;68988;49.000;21.242;2023-07-31T10:04:51;98259.31;;;27.18;45.83
57574;BME280;68988;49.000;21.242;2023-07-31T10:07:20;98252.88;;;27.19;46.06
57574;BME280;68988;49.000;21.242;2023-07-31T10:09:48;98254.97;;;27.22;45.75
57574;BME280;68988;49.000;21.242;2023-07-31T10:12:17;98252.25;;;27.22;46.15
57574;BME280;68988;49.000;21.242;2023-07-31T10:14:44;98250.06;;;27.24;46.07
57574;BME280;68988;49.000;21.242;2023-07-31T10:17:10;98252.75;;;27.24;46.05
57574;BME280;68988;49.000;21.242;2023-07-31T10:19:36;98245.75;;;27.23;45.70
57574;BME280;68988;49.000;21.242;2023-07-31T10:22:03;98240.09;;;27.25;46.00
57574;BME280;68988;49.000;21.242;2023-07-31T10:24:29;98244.09;;;27.27;45.86
57574;BME280;68988;49.000;21.242;2023-07-31T10:26:57;98239.00;;;27.26;45.76
57574;BME280;68988;49.000;21.242;2023-07-31T10:29:24;98244.88;;;27.28;45.90
57574;BME280;68988;49.000;21.242;2023-07-31T10:31:50;98230.63;;;27.27;46.15
57574;BME280;68988;49.000;21.242;2023-07-31T10:34:17;98242.13;;;27.33;45.60
57574;BME280;68988;49.000;21.242;2023-07-31T10:36:42;98229.47;;;27.33;45.63
57574;BME280;68988;49.000;21.242;2023-07-31T10:39:35;98225.06;;;27.38;45.36
57574;BME280;68988;49.000;21.242;2023-07-31T10:42:12;98226.16;;;27.37;45.01
57574;BME280;68988;49.000;21.242;2023-07-31T10:44:37;98218.69;;;27.33;45.03
57574;BME280;68988;49.000;21.242;2023-07-31T10:47:03;98211.91;;;27.36;45.02
57574;BME280;68988;49.000;21.242;2023-07-31T10:49:29;98208.31;;;27.41;45.20
57574;BME280;68988;49.000;21.242;2023-07-31T10:51:56;98214.09;;;27.34;45.37
57574;BME280;68988;49.000;21.242;2023-07-31T10:54:22;98207.63;;;27.35;45.44
57574;BME280;68988;49.000;21.242;2023-07-31T10:56:50;98207.31;;;27.37;45.41
57574;BME280;68988;49.000;21.242;2023-07-31T10:59:15;98210.59;;;27.33;45.69
57574;BME280;68988;49.000;21.242;2023-07-31T11:01:52;98217.00;;;27.38;45.17
57574;BME280;68988;49.000;21.242;2023-07-31T11:04:25;98216.47;;;27.36;45.68
57574;BME280;68988;49.000;21.242;2023-07-31T11:07:00;98206.31;;;27.46;44.83
57574;BME280;68988;49.000;21.242;2023-07-31T11:09:30;98202.84;;;27.32;45.19
57574;BME280;68988;49.000;21.242;2023-07-31T11:11:57;98199.91;;;27.28;45.39
57574;BME280;68988;49.000;21.242;2023-07-31T11:14:23;98201.16;;;27.36;44.96
57574;BME280;68988;49.000;21.242;2023-07-31T11:16:51;98189.84;;;27.34;45.20
57574;BME280;68988;49.000;21.242;2023-07-31T11:19:26;98197.34;;;27.37;45.20
57574;BME280;68988;49.000;21.242;2023-07-31T11:21:52;98191.75;;;27.33;45.38
57574;BME280;68988;49.000;21.242;2023-07-31T11:24:18;98197.16;;;27.33;45.22
57574;BME280;68988;49.000;21.242;2023-07-31T11:26:53;98204.13;;;27.35;45.24
57574;BME280;68988;49.000;21.242;2023-07-31T11:29:20;98203.03;;;27.36;44.94
57574;BME280;68988;49.000;21.242;2023-07-31T11:31:46;98203.63;;;27.32;45.19
57574;BME280;68988;49.000;21.242;2023-07-31T11:34:12;98194.94;;;27.36;45.11
57574;BME280;68988;49.000;21.242;2023-07-31T11:36:37;98194.94;;;27.36;44.68
57574;BME280;68988;49.000;21.242;2023-07-31T11:39:07;98204.63;;;27.37;44.86
57574;BME280;68988;49.000;21.242;2023-07-31T11:41:33;98198.75;;;27.35;44.47
57574;BME280;68988;49.000;21.242;2023-07-31T11:44:01;98198.16;;;27.38;44.62
57574;BME280;68988;49.000;21.242;2023-07-31T11:46:30;98196.84;;;27.35;44.58
57574;BME280;68988;49.000;21.242;2023-07-31T11:48:59;98195.25;;;27.34;44.33
57574;BME280;68988;49.000;21.242;2023-07-31T11:51:25;98184.78;;;27.32;44.64
57574;BME280;68988;49.000;21.242;2023-07-31T11:53:56;98183.38;;;27.35;44.15
57574;BME280;68988;49.000;21.242;2023-07-31T11:56:23;98188.78;;;27.35;44.36
57574;BME280;68988;49.000;21.242;2023-07-31T11:58:55;98190.06;;;27.38;44.37
57574;BME280;68988;49.000;21.242;2023-07-31T12:01:22;98186.88;;;27.36;44.20
57574;BME280;68988;49.000;21.242;2023-07-31T12:03:49;98180.41;;;27.37;43.84
57574;BME280;68988;49.000;21.242;2023-07-31T12:06:15;98174.53;;;27.35;43.66
57574;BME280;68988;49.000;21.242;2023-07-31T12:08:41;98178.78;;;27.36;43.97
57574;BME280;68988;49.000;21.242;2023-07-31T12:11:08;98170.94;;;27.39;43.70
57574;BME280;68988;49.000;21.242;2023-07-31T12:13:35;98178.78;;;27.36;44.20
57574;BME280;68988;49.000;21.242;2023-07-31T12:16:01;98164.25;;;27.37;44.09
57574;BME280;68988;49.000;21.242;2023-07-31T12:18:30;98162.63;;;27.36;44.10
57574;BME280;68988;49.000;21.242;2023-07-31T12:21:00;98167.41;;;27.39;43.59
57574;BME280;68988;49.000;21.242;2023-07-31T12:23:28;98166.63;;;27.38;43.44
57574;BME280;68988;49.000;21.242;2023-07-31T12:26:04;98159.03;;;27.40;43.76
57574;BME280;68988;49.000;21.242;2023-07-31T12:28:29;98159.16;;;27.35;43.56
57574;BME280;68988;49.000;21.242;2023-07-31T12:31:00;98158.25;;;27.40;43.21
57574;BME280;68988;49.000;21.242;2023-07-31T12:33:34;98153.66;;;27.40;43.32
57574;BME280;68988;49.000;21.242;2023-07-31T12:36:01;98163.03;;;27.43;43.50
57574;BME280;68988;49.000;21.242;2023-07-31T12:38:26;98159.84;;;27.41;43.82
57574;BME280;68988;49.000;21.242;2023-07-31T12:40:52;98155.56;;;27.40;43.20
57574;BME280;68988;49.000;21.242;2023-07-31T12:43:17;98153.97;;;27.39;43.44
57574;BME280;68988;49.000;21.242;2023-07-31T12:45:42;98143.19;;;27.39;43.43
57574;BME280;68988;49.000;21.242;2023-07-31T12:48:08;98144.78;;;27.40;43.04
57574;BME280;68988;49.000;21.242;2023-07-31T12:50:33;98150.47;;;27.38;43.34
57574;BME280;68988;49.000;21.242;2023-07-31T12:53:01;98144.78;;;27.40;42.82
57574;BME280;68988;49.000;21.242;2023-07-31T12:55:28;98144.00;;;27.39;43.30